Terminal Aerodrome Forecast
Issued by NWS Charleston, WV

Current Version | Previous Version | Graphics & Text | Print | Product List | Glossary On
Versions: 1 2 3 4 5 6 7 8 9 10 11 12 13 14 15 16 17 18 19 20 21 22
037
FTUS41 KRLX 241309 CCA
TAFPKB
TAF COR
KPKB 241309Z 2413/2512 34004KT P6SM BKN020
      TEMPO 2415/2416 BKN030
     FM241600 01007KT P6SM BKN040
     FM241900 36005KT P6SM SCT040
     FM250100 VRB03KT P6SM FEW250
     FM250900 00000KT 5SM BR SCT090=

USA.gov is the U.S. government's official web portal to all federal, state and local government web resources and services.